Time;durP1;ratioP1;P1;durP2;ratioP2;P2;SDS_P1;SDS_P2;PMS_P1;PMS_P2;Temp;Humidity;BMP_temperature;BMP_pressure;BME280_temperature;BME280_humidity;BME280_pressure;Samples;Min_cycle;Max_cycle;Signal;HPM_P1;HPM_P2
2022/02/14 00:00:55;;;;;;;21.52;10.20;;;;;;;2.28;84.59;100504.25;5136439;57;1139087;-74
2022/02/14 00:06:03;;;;;;;22.73;10.23;;;;;;;2.27;84.67;100509.08;5136267;57;1139032;-77
2022/02/14 00:11:08;;;;;;;25.97;10.27;;;;;;;2.22;84.70;100496.68;5133916;57;1138928;-71
2022/02/14 00:16:14;;;;;;;22.63;11.10;;;;;;;2.23;84.76;100491.00;5131834;57;1138979;-75
2022/02/14 00:21:20;;;;;;;23.03;9.43;;;;;;;2.20;84.74;100493.74;5131904;57;1139091;-74
2022/02/14 00:26:26;;;;;;;22.70;9.77;;;;;;;2.18;84.63;100491.20;5131855;57;1136987;-76
2022/02/14 00:31:33;;;;;;;23.98;10.32;;;;;;;2.16;84.65;100489.11;5131623;57;1137112;-72
2022/02/14 00:36:39;;;;;;;17.03;9.30;;;;;;;2.15;84.50;100486.11;5132032;57;1138997;-79
2022/02/14 00:41:44;;;;;;;18.77;9.03;;;;;;;2.13;84.38;100484.51;5131814;57;1136344;-75
2022/02/14 00:46:51;;;;;;;16.53;8.47;;;;;;;2.11;84.48;100489.78;5142445;57;1136580;-75
2022/02/14 00:51:57;;;;;;;20.20;9.60;;;;;;;2.14;84.25;100487.50;5147293;57;1137148;-72
2022/02/14 00:57:04;;;;;;;21.50;9.70;;;;;;;2.11;84.13;100479.35;5147134;57;1136937;-80
2022/02/14 01:02:10;;;;;;;21.83;9.43;;;;;;;2.12;83.83;100482.35;5147288;57;1136898;-79
2022/02/14 01:07:16;;;;;;;17.03;8.40;;;;;;;2.13;83.99;100464.94;5147170;56;1136935;-75
2022/02/14 01:12:21;;;;;;;21.93;10.23;;;;;;;2.17;83.58;100476.91;5150663;55;1136883;-79
2022/02/14 01:17:27;;;;;;;17.50;9.13;;;;;;;2.16;83.64;100466.94;5151508;57;1139044;-78
2022/02/14 01:22:34;;;;;;;17.70;7.03;;;;;;;2.16;83.54;100465.62;5151825;57;1137130;-78
2022/02/14 01:27:39;;;;;;;14.23;5.83;;;;;;;2.15;83.00;100460.47;5151357;57;1136927;-74
2022/02/14 01:32:45;;;;;;;19.77;7.90;;;;;;;2.15;83.01;100460.47;5151537;57;1136887;-74
2022/02/14 01:37:51;;;;;;;18.50;8.43;;;;;;;2.12;82.38;100456.27;5151527;55;1136975;-75
2022/02/14 01:42:57;;;;;;;17.20;8.70;;;;;;;2.11;82.86;100450.66;5151457;57;1136962;-76
2022/02/14 01:48:03;;;;;;;17.37;7.37;;;;;;;2.09;82.79;100449.88;5140308;56;1137237;-73
2022/02/14 01:53:09;;;;;;;14.30;6.58;;;;;;;2.06;82.36;100442.17;5136037;56;1137196;-74
2022/02/14 01:58:15;;;;;;;20.90;8.85;;;;;;;2.07;82.32;100436.05;5135682;57;1137077;-77
2022/02/14 02:03:22;;;;;;;14.47;7.87;;;;;;;2.03;82.52;100427.50;5135963;56;1136861;-80
2022/02/14 02:08:28;;;;;;;18.90;8.37;;;;;;;2.00;82.58;100418.50;5135680;57;1137170;-77
2022/02/14 02:13:35;;;;;;;12.80;7.13;;;;;;;1.97;82.45;100417.81;5131738;57;1136878;-76
2022/02/14 02:18:42;;;;;;;16.43;8.30;;;;;;;1.97;82.47;100408.68;5131979;57;1136991;-75
2022/02/14 02:23:49;;;;;;;16.77;7.97;;;;;;;1.93;82.31;100406.66;5132195;57;1137011;-73
2022/02/14 02:28:55;;;;;;;17.83;7.27;;;;;;;1.90;82.32;100401.57;5132176;57;1136908;-77
2022/02/14 02:34:01;;;;;;;14.73;8.93;;;;;;;1.89;82.31;100405.09;5132266;57;1134697;-73
2022/02/14 02:39:07;;;;;;;11.45;6.22;;;;;;;1.83;82.17;100390.19;5132311;57;1134939;-76
2022/02/14 02:44:14;;;;;;;13.13;7.37;;;;;;;1.86;81.97;100394.79;5132239;57;1134806;-74
2022/02/14 02:49:23;;;;;;;14.93;6.47;;;;;;;1.88;82.50;100384.30;5144655;57;1134954;-80
2022/02/14 02:54:29;;;;;;;20.90;7.53;;;;;;;1.92;82.37;100381.49;5147618;57;1134802;-73
2022/02/14 02:59:36;;;;;;;22.53;10.43;;;;;;;1.91;82.14;100370.67;5147573;56;1134806;-68
2022/02/14 03:04:43;;;;;;;13.23;6.47;;;;;;;1.91;81.84;100370.67;5147541;57;1136963;-68
2022/02/14 03:09:48;;;;;;;12.27;6.80;;;;;;;1.88;81.54;100368.65;5148858;56;1134824;-67
2022/02/14 03:14:54;;;;;;;13.50;5.97;;;;;;;1.85;81.25;100364.86;5151941;57;1135003;-67
2022/02/14 03:20:00;;;;;;;11.43;6.17;;;;;;;1.83;80.74;100349.77;5151877;57;1134936;-68
2022/02/14 03:25:06;;;;;;;19.47;8.07;;;;;;;1.81;81.01;100343.77;5150940;57;1134843;-68
2022/02/14 03:30:13;;;;;;;18.67;8.00;;;;;;;1.76;81.32;100333.55;5068382;58;1134852;-68
2022/02/14 03:35:18;;;;;;;15.80;6.53;;;;;;;1.76;81.29;100338.30;5068475;58;1135043;-67
2022/02/14 03:40:25;;;;;;;13.50;6.27;;;;;;;1.76;81.43;100322.66;5128503;56;1134834;-68
2022/02/14 03:45:32;;;;;;;17.77;7.72;;;;;;;1.75;81.18;100319.66;5151897;57;1134997;-67
2022/02/14 03:50:38;;;;;;;10.63;5.47;;;;;;;1.74;81.26;100309.30;5137894;56;1134852;-67
2022/02/14 03:55:44;;;;;;;21.17;6.70;;;;;;;1.71;80.64;100311.58;5139841;57;1135098;-67
2022/02/14 04:00:50;;;;;;;12.33;5.50;;;;;;;1.71;80.67;100312.03;5144158;56;1132835;-69
2022/02/14 04:05:56;;;;;;;14.30;7.50;;;;;;;1.71;80.91;100303.75;5191019;57;1132831;-68
2022/02/14 04:11:01;;;;;;;11.83;6.07;;;;;;;1.71;80.47;100299.00;5165944;57;1136934;-68
2022/02/14 04:16:07;;;;;;;8.10;5.07;;;;;;;1.70;80.20;100298.61;5141116;57;1136865;-69
2022/02/14 04:21:13;;;;;;;15.30;6.47;;;;;;;1.70;80.10;100299.91;5191292;56;1134842;-67
2022/02/14 04:26:19;;;;;;;14.53;6.30;;;;;;;1.70;79.42;100289.02;5191286;57;1136915;-66
2022/02/14 04:31:25;;;;;;;15.23;5.97;;;;;;;1.68;79.49;100286.12;5153085;57;1136926;-67
2022/02/14 04:36:31;;;;;;;15.60;6.80;;;;;;;1.68;79.65;100287.43;5136106;56;1137000;-69
2022/02/14 04:41:37;;;;;;;9.60;4.53;;;;;;;1.67;79.58;100277.45;5135889;57;1136914;-68
2022/02/14 04:46:43;;;;;;;12.87;6.60;;;;;;;1.66;79.52;100272.31;5136160;56;1134791;-68
2022/02/14 04:51:48;;;;;;;12.30;6.17;;;;;;;1.64;79.50;100274.14;5150871;57;1136941;-69
2022/02/14 04:56:54;;;;;;;8.23;4.77;;;;;;;1.64;79.41;100268.92;5151646;57;1136916;-70
2022/02/14 05:01:59;;;;;;;14.57;6.13;;;;;;;1.61;79.10;100269.90;5153240;56;1134937;-67
2022/02/14 05:07:05;;;;;;;8.60;5.67;;;;;;;1.62;79.23;100271.59;5154214;56;1136894;-67
2022/02/14 05:12:11;;;;;;;10.67;5.13;;;;;;;1.60;79.69;100275.17;5148196;57;1134799;-68
2022/02/14 05:17:18;;;;;;;12.30;6.60;;;;;;;1.60;79.69;100275.17;5147868;57;1136880;-67
2022/02/14 05:22:24;;;;;;;13.50;6.43;;;;;;;1.55;79.38;100281.89;5199923;56;1136910;-69
2022/02/14 05:27:29;;;;;;;14.83;6.00;;;;;;;1.52;79.61;100287.27;5180013;56;1136911;-68
2022/02/14 05:32:35;;;;;;;15.03;6.37;;;;;;;1.51;79.85;100287.33;5182422;56;1136917;-67
2022/02/14 05:37:41;;;;;;;12.73;7.07;;;;;;;1.48;80.00;100280.94;5217039;56;1136778;-67
2022/02/14 05:42:48;;;;;;;15.20;6.53;;;;;;;1.49;79.96;100280.87;5164957;55;1136900;-66
2022/02/14 05:47:54;;;;;;;10.97;5.80;;;;;;;1.49;79.94;100278.27;5151109;57;1136848;-69
2022/02/14 05:53:00;;;;;;;12.07;7.03;;;;;;;1.46;80.09;100282.31;5070762;58;1137019;-68
2022/02/14 05:58:06;;;;;;;19.73;8.17;;;;;;;1.43;80.39;100273.77;5071918;57;1137193;-66
2022/02/14 06:03:12;;;;;;;8.83;5.73;;;;;;;1.46;80.43;100278.40;5071302;58;1136865;-66
2022/02/14 06:08:18;;;;;;;14.95;7.83;;;;;;;1.46;80.22;100284.06;5071693;58;1134933;-68
2022/02/14 06:13:24;;;;;;;11.10;5.57;;;;;;;1.45;80.47;100274.55;5071079;58;1137164;-67
2022/02/14 06:18:30;;;;;;;16.10;7.63;;;;;;;1.44;80.43;100276.77;5072184;58;1136949;-67
2022/02/14 06:23:36;;;;;;;14.40;5.60;;;;;;;1.46;80.86;100277.09;5132165;57;1136872;-69
2022/02/14 06:28:42;;;;;;;13.73;6.67;;;;;;;1.47;80.92;100268.37;5135878;57;1137198;-67
2022/02/14 06:33:47;;;;;;;13.93;8.73;;;;;;;1.49;80.61;100275.66;5135853;57;1137126;-67
2022/02/14 06:38:53;;;;;;;13.13;7.50;;;;;;;1.53;80.87;100269.38;5133621;57;1136912;-68
2022/02/14 06:43:59;;;;;;;14.50;7.50;;;;;;;1.56;80.94;100267.95;5076134;57;1136933;-69
2022/02/14 06:49:06;;;;;;;20.00;7.37;;;;;;;1.63;80.98;100269.38;5073216;57;1136909;-66
2022/02/14 06:54:12;;;;;;;17.87;7.70;;;;;;;1.68;81.11;100278.30;5148957;56;1137115;-67
2022/02/14 06:59:19;;;;;;;19.63;7.57;;;;;;;1.80;81.33;100271.68;5155121;56;1136906;-66
2022/02/14 07:04:24;;;;;;;16.57;8.47;;;;;;;1.96;80.52;100276.59;5071152;56;1146222;-68
2022/02/14 07:09:30;;;;;;;16.67;10.23;;;;;;;2.15;80.58;100278.70;5047411;56;1136660;-67
2022/02/14 07:14:36;;;;;;;16.25;10.03;;;;;;;2.43;78.91;100271.28;4969240;56;1138835;-69
2022/02/14 07:19:42;;;;;;;15.43;7.27;;;;;;;2.43;78.91;100271.28;5043538;57;1138730;-67
2022/02/14 07:24:48;;;;;;;34.70;15.53;;;;;;;2.57;77.67;100273.69;5051039;57;1136669;-69
2022/02/14 07:29:53;;;;;;;17.87;9.70;;;;;;;2.72;78.65;100271.17;5050612;55;1138637;-69
2022/02/14 07:35:00;;;;;;;32.87;10.40;;;;;;;2.98;78.30;100269.02;5064989;56;1136563;-69
2022/02/14 07:40:06;;;;;;;14.73;8.43;;;;;;;3.12;78.47;100256.09;5115185;56;1138683;-68
2022/02/14 07:45:13;;;;;;;20.47;9.30;;;;;;;3.30;76.32;100252.55;5115275;56;1136564;-69
2022/02/14 07:50:23;;;;;;;19.85;9.33;;;;;;;3.44;76.62;100250.52;5131829;56;1136683;-68
2022/02/14 07:55:28;;;;;;;22.65;9.50;;;;;;;3.56;76.76;100246.40;5105366;56;1136524;-69
2022/02/14 08:00:33;;;;;;;34.73;7.95;;;;;;;3.65;74.14;100236.31;5120005;56;1136531;-69
2022/02/14 08:05:39;;;;;;;25.20;11.67;;;;;;;3.74;74.01;100238.88;5098335;56;1136766;-69
2022/02/14 08:10:45;;;;;;;23.23;10.03;;;;;;;3.98;76.66;100248.00;5055548;56;1138832;-69
2022/02/14 08:15:51;;;;;;;15.97;8.83;;;;;;;4.01;74.19;100241.77;5047282;56;1138808;-66
2022/02/14 08:20:57;;;;;;;19.10;9.67;;;;;;;4.17;73.73;100241.30;5049191;56;1136593;-68
2022/02/14 08:26:03;;;;;;;17.50;8.93;;;;;;;4.24;74.14;100227.80;5048632;56;1136900;-69
2022/02/14 08:31:08;;;;;;;19.37;8.27;;;;;;;4.45;74.20;100225.72;5055954;56;1136639;-69
2022/02/14 08:36:14;;;;;;;17.83;8.43;;;;;;;4.60;73.63;100217.45;5056980;56;1136700;-67
2022/02/14 08:41:23;;;;;;;15.36;7.72;;;;;;;4.72;72.47;100217.23;5074699;56;1136663;-69
2022/02/14 08:46:28;;;;;;;19.10;10.38;;;;;;;4.81;70.85;100220.14;5049819;57;1136525;-67
2022/02/14 08:51:35;;;;;;;13.48;6.47;;;;;;;4.91;72.83;100188.98;5057153;56;1138719;-66
2022/02/14 08:56:40;;;;;;;29.57;9.67;;;;;;;5.28;69.04;100204.67;5040191;56;1136954;-67
2022/02/14 09:01:48;;;;;;;22.82;10.43;;;;;;;5.30;71.22;100191.84;5032297;56;1136715;-68
2022/02/14 09:06:55;;;;;;;22.13;10.75;;;;;;;5.58;70.48;100188.83;5035543;56;1138675;-67
2022/02/14 09:12:02;;;;;;;23.73;7.60;;;;;;;5.81;68.39;100182.13;5036094;56;1138867;-68
2022/02/14 09:17:08;;;;;;;20.30;11.37;;;;;;;5.82;66.67;100172.84;5039133;56;1136883;-67
2022/02/14 09:22:15;;;;;;;16.77;9.13;;;;;;;5.77;68.45;100170.16;5078488;56;1138897;-67
2022/02/14 09:27:20;;;;;;;16.33;8.43;;;;;;;6.05;67.74;100174.05;5037611;57;1136621;-66
2022/02/14 09:32:26;;;;;;;25.83;11.67;;;;;;;6.06;67.13;100172.27;5037004;56;1136730;-67
2022/02/14 09:37:32;;;;;;;29.42;10.13;;;;;;;6.15;68.67;100174.28;5037477;56;1138761;-67
2022/02/14 09:42:39;;;;;;;16.82;8.60;;;;;;;6.29;68.30;100161.10;5037233;56;1138801;-67
2022/02/14 09:47:46;;;;;;;20.20;10.23;;;;;;;6.47;66.13;100157.27;5033683;56;1136769;-69
2022/02/14 09:52:53;;;;;;;23.13;8.93;;;;;;;6.40;64.42;100153.84;5029530;56;1138919;-67
2022/02/14 09:57:59;;;;;;;59.87;31.17;;;;;;;6.31;66.87;100150.87;5045995;56;1136590;-67
2022/02/14 10:03:20;;;;;;;15.53;9.83;;;;;;;6.42;68.08;100151.94;5048585;55;1138816;-66
2022/02/14 10:08:38;;;;;;;19.23;11.27;;;;;;;6.44;66.65;100158.77;5048483;57;1136745;-67
2022/02/14 10:13:50;;;;;;;20.92;11.10;;;;;;;6.60;67.54;100152.03;5041125;56;1138977;-68
2022/02/14 10:18:52;;;;;;;16.27;10.47;;;;;;;6.74;68.03;100155.04;5053523;56;1138933;-67
2022/02/14 10:24:10;;;;;;;25.57;10.07;;;;;;;6.84;67.92;100156.97;5043107;55;1139267;-68
2022/02/14 10:29:31;;;;;;;14.50;8.20;;;;;;;6.75;66.91;100151.00;5046216;56;1138688;-67
2022/02/14 10:34:46;;;;;;;25.05;10.58;;;;;;;6.83;66.42;100138.67;5047290;56;1136818;-69
2022/02/14 10:39:55;;;;;;;15.83;8.43;;;;;;;6.93;65.89;100130.51;4987251;56;1138981;-68
2022/02/14 10:45:11;;;;;;;12.97;6.60;;;;;;;7.03;64.55;100129.76;4994707;57;1136729;-68
2022/02/14 10:50:23;;;;;;;19.07;9.57;;;;;;;7.08;64.83;100133.87;5019080;55;1137042;-68
2022/02/14 10:55:42;;;;;;;17.20;9.20;;;;;;;7.25;65.94;100129.59;5026729;55;1136772;-67
2022/02/14 11:00:47;;;;;;;14.53;8.20;;;;;;;7.33;64.73;100128.60;5049698;56;1136772;-67
2022/02/14 11:05:55;;;;;;;24.37;9.07;;;;;;;7.46;64.63;100136.47;5055272;55;1136774;-68
2022/02/14 11:11:04;;;;;;;14.30;8.20;;;;;;;7.39;63.31;100132.94;5061930;56;1136521;-68
2022/02/14 11:16:12;;;;;;;32.23;14.63;;;;;;;7.43;63.78;100130.09;5050881;56;1136544;-66
2022/02/14 11:21:17;;;;;;;15.87;7.60;;;;;;;7.56;63.72;100117.75;5055207;55;1138654;-66
2022/02/14 11:26:49;;;;;;;17.27;8.88;;;;;;;7.63;61.54;100111.95;5047868;55;1136696;-68
2022/02/14 11:32:23;;;;;;;22.17;10.37;;;;;;;7.71;61.77;100108.75;5037514;55;1136924;-68
2022/02/14 11:37:58;;;;;;;23.45;12.10;;;;;;;7.81;62.16;100083.90;5067997;55;1138857;-68
2022/02/14 11:43:10;;;;;;;11.57;7.67;;;;;;;7.97;62.10;100085.30;5038390;56;1138932;-68
2022/02/14 11:48:27;;;;;;;17.30;9.70;;;;;;;8.18;62.08;100078.09;5040477;57;1137046;-69
2022/02/14 11:53:44;;;;;;;15.00;8.88;;;;;;;8.38;63.98;100069.57;5051583;57;1136572;-67
2022/02/14 11:59:16;;;;;;;24.10;11.23;;;;;;;8.54;61.69;100076.67;5044752;55;1136807;-68
2022/02/14 12:04:46;;;;;;;24.20;12.73;;;;;;;8.65;62.61;100053.44;5053653;55;1138761;-67
2022/02/14 12:10:14;;;;;;;18.93;12.10;;;;;;;8.78;63.77;100058.96;5051124;55;1138798;-68
2022/02/14 12:20:36;;;;;;;14.23;9.00;;;;;;;8.97;61.84;100046.51;5051391;56;1138928;-68
2022/02/14 12:25:52;;;;;;;12.98;7.22;;;;;;;9.08;60.24;100040.37;5052688;56;1136642;-66
2022/02/14 12:31:00;;;;;;;18.57;9.17;;;;;;;9.24;59.10;100034.25;5054985;55;1136631;-69
2022/02/14 12:36:11;;;;;;;13.43;8.63;;;;;;;9.32;59.52;100030.50;5055136;56;1136610;-69
2022/02/14 12:41:17;;;;;;;45.87;25.87;;;;;;;9.36;59.92;100037.70;5051123;57;1136522;-67
2022/02/14 12:46:25;;;;;;;24.20;14.77;;;;;;;9.47;60.40;100028.45;5048620;56;1138583;-68
2022/02/14 12:51:33;;;;;;;24.90;11.15;;;;;;;9.57;60.80;100020.14;5054480;56;1141032;-67
2022/02/14 12:56:41;;;;;;;17.55;9.95;;;;;;;9.80;62.22;100017.77;5054583;56;1140681;-67
2022/02/14 13:01:48;;;;;;;17.90;10.25;;;;;;;9.93;60.17;100010.17;5054432;57;1138848;-70
2022/02/14 13:06:59;;;;;;;12.47;7.30;;;;;;;9.95;59.90;100001.12;5054399;56;1140653;-67
2022/02/14 13:12:15;;;;;;;20.63;10.27;;;;;;;9.91;58.90;99997.09;5053923;56;1138620;-68
2022/02/14 13:17:20;;;;;;;18.97;9.57;;;;;;;9.96;58.91;99992.72;5053293;56;1138752;-66
2022/02/14 13:22:38;;;;;;;24.30;9.88;;;;;;;10.04;59.23;99999.05;5066984;56;1136728;-69
2022/02/14 13:27:44;;;;;;;33.50;13.67;;;;;;;10.09;58.06;99988.08;5048599;57;1138620;-67
2022/02/14 13:32:51;;;;;;;21.17;10.17;;;;;;;10.26;59.88;99993.30;5054414;56;1140703;-68
2022/02/14 13:38:00;;;;;;;17.20;8.47;;;;;;;10.44;59.12;99987.30;5054210;56;1140902;-68
2022/02/14 13:43:10;;;;;;;17.17;9.20;;;;;;;10.53;56.54;99990.98;5046669;56;1138881;-68
2022/02/14 13:48:36;;;;;;;13.33;7.73;;;;;;;10.50;57.50;99988.59;5053814;56;1138740;-66
2022/02/14 13:53:41;;;;;;;23.57;8.43;;;;;;;10.55;55.82;99987.69;5027527;57;1138904;-68
2022/02/14 13:58:50;;;;;;;22.32;8.90;;;;;;;10.60;56.57;99988.63;5052728;56;1139157;-68
2022/02/14 14:04:17;;;;;;;32.27;15.47;;;;;;;10.89;56.66;99979.84;5049507;56;1138714;-66
2022/02/14 14:09:24;;;;;;;26.57;9.20;;;;;;;10.89;56.66;99979.84;5049376;56;1140760;-67
2022/02/14 14:14:37;;;;;;;14.80;7.20;;;;;;;11.15;56.70;99976.73;5027631;56;1139529;-68
2022/02/14 14:19:54;;;;;;;11.13;6.80;;;;;;;11.34;53.12;99972.77;5045884;56;1138981;-67
2022/02/14 14:25:03;;;;;;;29.93;8.70;;;;;;;11.77;53.09;99963.13;5049180;56;1138977;-66
2022/02/14 14:30:10;;;;;;;30.00;15.23;;;;;;;12.35;51.90;99967.53;5046017;56;1138700;-67
2022/02/14 14:35:18;;;;;;;49.03;20.70;;;;;;;12.78;52.58;99969.12;5052568;57;1140792;-67
2022/02/14 14:40:24;;;;;;;29.67;16.40;;;;;;;12.20;51.24;99971.13;5058682;56;1141000;-67
2022/02/14 14:45:30;;;;;;;50.50;25.77;;;;;;;11.28;53.03;99981.28;5052836;57;1149793;-67
2022/02/14 14:50:36;;;;;;;53.98;26.96;;;;;;;10.73;54.68;99979.50;5048476;57;1141051;-68
2022/02/14 14:55:44;;;;;;;15.53;8.33;;;;;;;10.47;56.00;99972.98;5095263;55;1140827;-66
2022/02/14 15:00:49;;;;;;;29.87;16.57;;;;;;;11.26;56.72;99968.66;5142392;55;1138840;-69
2022/02/14 15:05:55;;;;;;;22.60;10.70;;;;;;;11.50;54.15;99966.45;5081369;56;1141041;-68
2022/02/14 15:11:01;;;;;;;20.90;11.07;;;;;;;10.85;55.01;99963.03;5045925;56;1140776;-67
2022/02/14 15:16:07;;;;;;;31.57;16.10;;;;;;;10.38;57.21;99964.05;5056502;56;1141032;-68
2022/02/14 15:21:14;;;;;;;48.60;19.67;;;;;;;10.09;58.42;99966.46;5056519;56;1140789;-68
2022/02/14 15:26:20;;;;;;;31.10;15.07;;;;;;;10.15;58.24;99961.16;5057074;56;1140909;-80
2022/02/14 15:31:26;;;;;;;44.93;15.07;;;;;;;10.60;57.68;99974.08;5057250;56;1141050;-77
2022/02/14 15:36:33;;;;;;;30.47;17.07;;;;;;;10.33;58.18;99970.20;5057187;56;1141022;-77
2022/02/14 15:41:40;;;;;;;26.00;13.87;;;;;;;9.91;59.06;99971.16;5057318;55;1140903;-72
2022/02/14 15:46:47;;;;;;;63.85;19.07;;;;;;;9.59;60.08;99968.53;5057065;56;1136649;-68
2022/02/14 15:51:54;;;;;;;31.57;12.70;;;;;;;9.25;60.49;99961.20;5057216;56;1136553;-66
2022/02/14 15:57:01;;;;;;;39.60;16.30;;;;;;;8.98;60.98;99966.91;5057656;57;1136570;-68
2022/02/14 16:02:07;;;;;;;40.70;17.53;;;;;;;8.71;61.65;99973.86;5054086;56;1136766;-69
2022/02/14 16:07:13;;;;;;;45.70;17.07;;;;;;;8.51;61.90;99968.84;5053094;56;1136857;-67
2022/02/14 16:12:19;;;;;;;49.07;16.93;;;;;;;8.38;62.55;99963.70;5056610;55;1136546;-67
2022/02/14 16:17:24;;;;;;;47.77;17.23;;;;;;;8.20;62.60;99957.64;5057233;56;1136543;-66
2022/02/14 16:22:30;;;;;;;74.10;30.60;;;;;;;8.04;62.83;99963.24;5037864;56;1136698;-69
2022/02/14 16:27:36;;;;;;;89.00;33.45;;;;;;;7.91;63.35;99960.70;5054238;56;1136732;-69
2022/02/14 16:32:43;;;;;;;20.88;11.25;;;;;;;7.81;63.81;99958.38;5053612;56;1136730;-67
2022/02/14 16:37:50;;;;;;;28.23;10.77;;;;;;;7.72;63.83;99965.19;5056071;56;1137053;-67
2022/02/14 16:42:56;;;;;;;40.30;14.73;;;;;;;7.61;64.24;99970.89;5052996;56;1136734;-68
2022/02/14 16:48:01;;;;;;;26.37;11.80;;;;;;;7.52;64.54;99968.92;5057230;56;1136697;-67
2022/02/14 16:53:11;;;;;;;20.15;9.88;;;;;;;7.44;64.79;99980.02;5055984;57;1136447;-68
2022/02/14 16:58:17;;;;;;;56.20;17.00;;;;;;;7.35;64.97;99976.73;5057340;56;1134991;-68
2022/02/14 17:03:24;;;;;;;48.17;20.97;;;;;;;7.26;65.57;99980.88;5055097;56;1136466;-67
2022/02/14 17:08:30;;;;;;;26.02;13.53;;;;;;;7.20;65.64;99974.73;5033532;56;1136615;-68
2022/02/14 17:13:36;;;;;;;18.70;10.40;;;;;;;7.14;65.72;99987.03;5020618;57;1136796;-68
2022/02/14 17:18:42;;;;;;;27.10;13.18;;;;;;;7.07;65.83;99984.46;5023137;57;1136788;-66
2022/02/14 17:23:48;;;;;;;30.55;14.10;;;;;;;7.01;65.82;99971.77;5023600;57;1136667;-68
2022/02/14 17:28:54;;;;;;;33.77;12.20;;;;;;;7.00;66.25;99962.20;4971392;57;1137022;-68
2022/02/14 17:34:00;;;;;;;27.60;13.00;;;;;;;6.98;65.78;99963.63;4890991;58;1136628;-67
2022/02/14 17:39:13;;;;;;;32.53;12.67;;;;;;;6.96;65.58;99968.15;4890508;58;1136769;-67
2022/02/14 17:44:22;;;;;;;32.15;12.50;;;;;;;6.93;65.46;99973.62;4890317;58;1136713;-70
2022/02/14 17:49:29;;;;;;;29.37;14.70;;;;;;;6.90;65.84;99965.95;4890585;58;1136639;-67
2022/02/14 17:54:34;;;;;;;21.73;10.63;;;;;;;6.86;65.84;99959.25;5014081;57;1136733;-69
2022/02/14 17:59:40;;;;;;;33.28;14.75;;;;;;;6.81;65.84;99950.84;5048788;56;1136588;-68
2022/02/14 18:04:46;;;;;;;27.67;15.00;;;;;;;6.77;66.03;99957.73;5087067;57;1136830;-66
2022/02/14 18:09:53;;;;;;;42.80;17.50;;;;;;;6.72;66.43;99972.53;5075976;57;1136711;-67
2022/02/14 18:14:58;;;;;;;60.23;23.73;;;;;;;6.65;66.72;99981.30;5057213;56;1136785;-69
2022/02/14 18:20:05;;;;;;;29.77;14.27;;;;;;;6.59;66.83;99971.68;5057003;57;1136775;-68
2022/02/14 18:25:11;;;;;;;35.67;15.00;;;;;;;6.52;67.43;99977.02;5057172;56;1136702;-68
2022/02/14 18:30:18;;;;;;;34.73;15.78;;;;;;;6.43;68.23;99980.26;5056918;56;1137056;-67
2022/02/14 18:35:24;;;;;;;28.07;12.77;;;;;;;6.37;68.56;99982.85;5057055;56;1137061;-68
2022/02/14 18:40:30;;;;;;;33.87;15.10;;;;;;;6.34;69.00;99974.70;5057182;57;1136762;-68
2022/02/14 18:45:35;;;;;;;37.50;15.70;;;;;;;6.31;69.35;99974.06;5057382;57;1137031;-67
2022/02/14 18:50:41;;;;;;;51.68;22.40;;;;;;;6.20;69.74;99975.28;5057226;56;1136863;-67
2022/02/14 18:55:46;;;;;;;71.72;31.25;;;;;;;6.14;70.31;99979.63;5056503;56;1136757;-68
2022/02/14 19:00:53;;;;;;;114.37;41.40;;;;;;;6.08;70.69;99984.84;5040680;57;1136802;-68
2022/02/14 19:05:58;;;;;;;127.80;43.40;;;;;;;6.04;71.06;99987.77;5056963;57;1138860;-70
2022/02/14 19:11:06;;;;;;;266.73;70.03;;;;;;;5.97;71.57;99978.14;5057352;56;1138826;-67
2022/02/14 19:16:13;;;;;;;122.70;36.43;;;;;;;5.89;71.80;99979.14;5056728;57;1138933;-76
2022/02/14 19:21:19;;;;;;;107.07;34.67;;;;;;;5.80;72.45;99983.67;5056593;57;1138731;-74
2022/02/14 19:26:24;;;;;;;109.10;34.97;;;;;;;5.77;72.49;99982.55;5057290;57;1138860;-80
2022/02/14 19:31:31;;;;;;;82.07;30.90;;;;;;;5.73;72.67;99985.84;5056747;57;1138765;-76
2022/02/14 19:36:37;;;;;;;46.97;22.10;;;;;;;5.68;72.60;99989.70;5056784;57;1136877;-83
2022/02/14 19:41:42;;;;;;;72.53;29.32;;;;;;;5.61;72.84;99980.94;5077272;56;1136756;-75
2022/02/14 19:46:48;;;;;;;71.05;31.33;;;;;;;5.59;72.99;99984.59;5057690;56;1136822;-75
2022/02/14 19:51:55;;;;;;;82.33;35.87;;;;;;;5.58;73.14;99987.69;5057588;56;1136642;-81
2022/02/14 19:57:03;;;;;;;50.08;21.70;;;;;;;5.55;73.20;99997.06;5056302;57;1136563;-70
2022/02/14 20:02:08;;;;;;;55.73;27.10;;;;;;;5.52;73.32;99995.95;5050781;56;1136665;-73
2022/02/14 20:07:14;;;;;;;60.47;28.30;;;;;;;5.49;73.42;99986.16;5057622;57;1136606;-76
2022/02/14 20:12:20;;;;;;;40.80;18.23;;;;;;;5.44;73.57;99986.91;5054441;57;1136935;-74
2022/02/14 20:17:27;;;;;;;50.30;22.43;;;;;;;5.39;73.65;99982.42;5057045;57;1136798;-75
2022/02/14 20:22:32;;;;;;;56.33;24.80;;;;;;;5.33;73.79;99982.84;5092252;56;1136759;-77
2022/02/14 20:27:40;;;;;;;46.02;19.17;;;;;;;5.25;73.92;99984.16;5089985;56;1139938;-79
2022/02/14 20:32:47;;;;;;;27.30;15.07;;;;;;;5.17;74.12;99981.20;5140610;56;1136605;-77
2022/02/14 20:37:53;;;;;;;58.37;26.53;;;;;;;5.14;74.25;99986.63;5104888;56;1136592;-72
2022/02/14 20:43:01;;;;;;;25.20;13.23;;;;;;;5.08;74.47;99980.45;5055970;56;1136494;-75
2022/02/14 20:48:06;;;;;;;42.33;24.05;;;;;;;5.02;74.65;99980.02;5094806;56;1136717;-77
2022/02/14 20:53:12;;;;;;;36.73;20.00;;;;;;;4.94;74.92;99987.04;5017577;56;1136737;-76
2022/02/14 20:58:18;;;;;;;34.90;14.43;;;;;;;4.92;75.05;99983.67;5076662;56;1136848;-79
2022/02/14 21:03:24;;;;;;;33.30;15.25;;;;;;;4.87;75.30;99985.30;5058006;56;1136580;-78
2022/02/14 21:08:30;;;;;;;29.07;15.13;;;;;;;4.84;75.45;99984.64;5055816;56;1136657;-77
2022/02/14 21:13:36;;;;;;;30.37;15.03;;;;;;;4.77;75.59;99993.80;5048536;57;1136583;-74
2022/02/14 21:18:42;;;;;;;32.17;14.43;;;;;;;4.70;75.86;99999.06;5049756;56;1136709;-78
2022/02/14 21:23:48;;;;;;;28.63;14.37;;;;;;;4.63;76.11;99998.58;5037582;57;1137014;-74
2022/02/14 21:28:56;;;;;;;30.13;17.03;;;;;;;4.60;76.32;99991.75;5037376;57;1136509;-77
2022/02/14 21:34:02;;;;;;;33.50;15.47;;;;;;;4.57;76.48;99986.72;5034155;56;1136584;-72
2022/02/14 21:39:08;;;;;;;27.83;12.97;;;;;;;4.56;76.63;99981.58;5037815;57;1136521;-68
2022/02/14 21:44:15;;;;;;;30.10;16.30;;;;;;;4.56;76.80;99985.50;5049009;56;1136716;-74
2022/02/14 21:49:22;;;;;;;30.53;15.10;;;;;;;4.55;76.75;99982.05;5073298;56;1136531;-71
2022/02/14 21:54:28;;;;;;;33.63;17.23;;;;;;;4.51;76.70;99983.16;5079983;56;1136811;-70
2022/02/14 21:59:35;;;;;;;30.20;16.70;;;;;;;4.50;76.74;99986.71;5086131;56;1250536;-77
2022/02/14 22:10:08;;;;;;;35.58;17.55;;;;;;;4.56;76.90;99988.97;5103814;56;1136880;-75
2022/02/14 22:15:13;;;;;;;40.77;19.97;;;;;;;4.58;76.75;99975.28;5121744;56;1136630;-74
2022/02/14 22:20:20;;;;;;;40.33;19.73;;;;;;;4.59;76.69;99976.97;5137343;56;1136929;-73
2022/02/14 22:25:27;;;;;;;49.13;23.07;;;;;;;4.58;76.70;99975.78;5013008;56;1136552;-78
2022/02/14 22:30:33;;;;;;;51.60;25.40;;;;;;;4.56;76.78;99971.95;4975494;57;1136711;-78
2022/02/14 22:35:40;;;;;;;44.57;21.77;;;;;;;4.55;76.81;99978.12;4975801;57;1136730;-81
2022/02/14 22:40:46;;;;;;;52.53;27.33;;;;;;;4.51;76.82;99976.61;4975829;57;1137258;-71
2022/02/14 22:45:51;;;;;;;35.78;18.20;;;;;;;4.46;76.88;99972.58;4975846;57;1136830;-78
2022/02/14 22:50:58;;;;;;;33.43;17.73;;;;;;;4.39;76.96;99969.52;4975706;56;1136670;-74
2022/02/14 22:56:04;;;;;;;34.30;16.80;;;;;;;4.35;77.21;99971.09;4975632;57;1136519;-73
2022/02/14 23:01:09;;;;;;;27.17;14.47;;;;;;;4.31;77.24;99966.97;4975608;57;1136746;-78
2022/02/14 23:14:08;;;;;;;30.87;15.20;;;;;;;4.27;77.38;99962.87;4975646;57;1136650;-79
2022/02/14 23:16:47;;;;;;;39.37;19.80;;;;;;;4.23;77.64;99966.14;5053819;57;1136988;-74
2022/02/14 23:21:53;;;;;;;42.70;16.57;;;;;;;4.23;77.59;99956.52;5039239;57;1136774;-74
2022/02/14 23:26:59;;;;;;;35.93;17.53;;;;;;;4.22;77.67;99960.06;5033830;57;1136576;-78